Time;durP1;ratioP1;P1;durP2;ratioP2;P2;SDS_P1;SDS_P2;PMS_P1;PMS_P2;Temp;Humidity;BMP_temperature;BMP_pressure;BME280_temperature;BME280_humidity;BME280_pressure;Samples;Min_cycle;Max_cycle;Signal;HPM_P1;HPM_P2
2024/01/30 00:00:30;;;;;;;15.23;9.18;;;;;;;6.82;75.87;102846.56;7391833;19;20402;-56
2024/01/30 00:03:01;;;;;;;14.63;9.85;;;;;;;6.80;75.68;102845.78;7392440;19;20085;-53
2024/01/30 00:05:38;;;;;;;15.20;9.85;;;;;;;6.82;75.81;102843.94;7391288;19;20038;-55
2024/01/30 00:08:09;;;;;;;16.20;9.07;;;;;;;7.18;74.59;102851.84;7392315;19;20033;-55
2024/01/30 00:10:40;;;;;;;13.45;8.52;;;;;;;7.28;73.67;102841.91;7391312;19;20025;-56
2024/01/30 00:13:10;;;;;;;14.38;8.82;;;;;;;7.36;73.74;102847.84;7393119;19;20018;-55
2024/01/30 00:15:41;;;;;;;15.93;8.88;;;;;;;7.55;73.02;102845.59;7389603;19;20453;-54
2024/01/30 00:18:12;;;;;;;13.05;8.57;;;;;;;7.64;72.56;102840.09;7391849;19;20036;-55
2024/01/30 00:20:43;;;;;;;12.30;7.75;;;;;;;7.70;72.25;102845.16;7391610;19;20017;-56
2024/01/30 00:23:13;;;;;;;14.48;8.13;;;;;;;7.73;72.03;102842.44;7390879;19;20025;-57
2024/01/30 00:25:44;;;;;;;13.07;8.18;;;;;;;7.76;71.69;102838.88;7390916;19;20022;-56
2024/01/30 00:28:15;;;;;;;13.90;8.00;;;;;;;7.79;71.73;102836.16;7392336;19;20048;-56
2024/01/30 00:30:46;;;;;;;13.75;7.85;;;;;;;7.82;71.55;102839.56;7391426;19;20014;-57
2024/01/30 00:33:16;;;;;;;13.85;8.18;;;;;;;7.78;71.55;102839.69;7391537;19;20039;-57
2024/01/30 00:35:47;;;;;;;12.60;8.02;;;;;;;7.86;70.95;102835.06;7388250;19;20014;-57
2024/01/30 00:38:17;;;;;;;15.93;8.82;;;;;;;7.86;71.14;102836.81;7391356;19;20050;-54
2024/01/30 00:40:48;;;;;;;12.25;8.05;;;;;;;7.91;70.86;102840.22;7390525;19;20028;-57
2024/01/30 00:43:19;;;;;;;13.27;7.88;;;;;;;7.92;70.71;102836.66;7391104;19;20014;-57
2024/01/30 00:45:52;;;;;;;15.68;8.57;;;;;;;7.93;70.41;102838.38;7391077;19;20025;-58
2024/01/30 00:48:22;;;;;;;14.55;8.00;;;;;;;7.90;70.72;102833.19;7391978;19;20023;-58
2024/01/30 00:50:53;;;;;;;13.95;8.13;;;;;;;7.84;70.51;102826.31;7391183;19;20494;-58
2024/01/30 00:53:23;;;;;;;11.85;7.28;;;;;;;7.87;70.70;102818.31;7390895;19;20018;-58
2024/01/30 00:55:54;;;;;;;13.65;8.15;;;;;;;7.90;70.60;102822.63;7388499;19;20174;-57
2024/01/30 00:58:24;;;;;;;13.55;8.15;;;;;;;7.84;70.74;102822.81;7391030;19;20022;-58
2024/01/30 01:00:55;;;;;;;14.02;8.10;;;;;;;7.86;70.61;102818.34;7390501;19;20035;-58
2024/01/30 01:03:26;;;;;;;14.07;8.27;;;;;;;7.89;70.42;102810.34;7390661;19;20046;-53
2024/01/30 01:05:56;;;;;;;12.93;7.85;;;;;;;7.87;70.59;102820.97;7389601;19;20430;-56
2024/01/30 01:08:27;;;;;;;14.60;8.10;;;;;;;7.90;70.49;102812.97;7390600;19;20019;-57
2024/01/30 01:10:57;;;;;;;13.63;7.80;;;;;;;7.92;70.29;102810.28;7390543;19;20018;-55
2024/01/30 01:13:31;;;;;;;14.30;7.72;;;;;;;7.94;70.55;102808.47;7390886;19;20026;-57
2024/01/30 01:16:02;;;;;;;14.05;8.43;;;;;;;7.98;70.22;102805.69;7387790;19;20090;-54
2024/01/30 01:18:39;;;;;;;15.10;8.43;;;;;;;8.06;70.37;102808.97;7390062;19;20403;-56
2024/01/30 01:21:09;;;;;;;12.32;7.70;;;;;;;8.03;70.39;102802.91;7388413;19;20499;-56
2024/01/30 01:23:42;;;;;;;13.88;7.78;;;;;;;7.97;70.55;102806.56;7397084;19;20018;-57
2024/01/30 01:26:13;;;;;;;13.07;7.68;;;;;;;7.91;70.80;102804.13;7395357;19;20023;-54
2024/01/30 01:28:43;;;;;;;15.05;8.60;;;;;;;7.93;70.71;102797.03;7396396;19;20028;-56
2024/01/30 01:31:14;;;;;;;14.52;7.90;;;;;;;7.99;70.41;102794.22;7397907;19;20047;-54
2024/01/30 01:33:45;;;;;;;12.25;7.63;;;;;;;7.97;70.27;102784.59;7397614;19;20020;-57
2024/01/30 01:36:16;;;;;;;13.02;7.85;;;;;;;7.93;70.67;102785.63;7392533;19;20027;-55
2024/01/30 01:38:46;;;;;;;12.32;7.90;;;;;;;7.95;70.59;102789.09;7398036;19;20039;-57
2024/01/30 01:41:17;;;;;;;13.50;7.70;;;;;;;7.97;70.79;102781.97;7397726;19;20078;-57
2024/01/30 01:43:47;;;;;;;12.13;7.80;;;;;;;7.97;70.53;102774.91;7396869;19;20032;-55
2024/01/30 01:46:18;;;;;;;13.23;7.68;;;;;;;7.86;71.06;102779.69;7395179;19;20027;-55
2024/01/30 01:48:49;;;;;;;13.00;7.57;;;;;;;7.86;71.06;102792.88;7397262;19;20026;-57
2024/01/30 01:51:21;;;;;;;14.00;8.07;;;;;;;7.86;71.06;102782.31;7397433;19;20035;-57
2024/01/30 01:53:54;;;;;;;14.02;8.38;;;;;;;7.97;70.51;102789.88;7397389;19;20022;-57
2024/01/30 01:56:28;;;;;;;13.68;8.70;;;;;;;7.88;70.73;102782.25;7393295;19;20029;-56
2024/01/30 01:59:07;;;;;;;14.95;7.93;;;;;;;7.79;71.08;102780.78;7395153;19;20018;-56
2024/01/30 02:01:45;;;;;;;13.00;7.82;;;;;;;7.78;71.06;102784.28;7395815;19;20362;-57
2024/01/30 02:04:16;;;;;;;13.98;7.85;;;;;;;7.76;71.23;102783.50;7396382;19;20014;-56
2024/01/30 02:06:47;;;;;;;13.88;7.85;;;;;;;7.73;71.19;102780.94;7394045;19;20357;-57
2024/01/30 02:09:18;;;;;;;14.05;8.20;;;;;;;7.71;71.53;102772.22;7396884;19;20015;-56
2024/01/30 02:11:49;;;;;;;13.85;7.75;;;;;;;7.70;71.85;102773.97;7396339;19;20213;-57
2024/01/30 02:14:19;;;;;;;13.13;8.35;;;;;;;7.64;71.92;102783.84;7396513;19;20055;-56
2024/01/30 02:16:50;;;;;;;15.65;9.02;;;;;;;7.67;71.86;102781.09;7392830;19;20029;-56
2024/01/30 02:19:20;;;;;;;13.43;8.15;;;;;;;7.59;72.32;102773.41;7395826;19;20475;-54
2024/01/30 02:21:52;;;;;;;12.98;7.70;;;;;;;7.67;72.24;102775.81;7396121;19;20019;-55
2024/01/30 02:24:22;;;;;;;14.40;8.35;;;;;;;7.65;72.09;102762.69;7395469;19;20018;-55
2024/01/30 02:26:53;;;;;;;12.77;8.50;;;;;;;7.64;72.44;102763.63;7393550;19;20381;-53
2024/01/30 02:29:23;;;;;;;14.90;8.50;;;;;;;7.63;72.30;102750.47;7393275;19;20397;-54
2024/01/30 02:31:54;;;;;;;13.20;7.93;;;;;;;7.64;72.61;102749.56;7393880;19;20098;-55
2024/01/30 02:34:24;;;;;;;13.98;8.43;;;;;;;7.63;72.85;102751.34;7392927;19;20030;-55
2024/01/30 02:36:55;;;;;;;12.43;8.23;;;;;;;7.52;73.30;102745.53;7392477;19;20022;-51
2024/01/30 02:39:25;;;;;;;13.57;8.10;;;;;;;7.57;73.22;102744.47;7396228;19;20019;-55
2024/01/30 02:41:57;;;;;;;11.63;7.65;;;;;;;7.52;73.17;102737.63;7395534;19;20018;-55
2024/01/30 02:44:29;;;;;;;13.85;7.82;;;;;;;7.63;73.21;102739.91;7395762;19;20104;-52
2024/01/30 02:46:59;;;;;;;14.75;8.52;;;;;;;7.69;72.97;102739.75;7392846;19;20025;-54
2024/01/30 02:49:37;;;;;;;13.15;8.52;;;;;;;7.62;73.20;102732.91;7394936;19;20023;-56
2024/01/30 02:52:08;;;;;;;13.80;8.23;;;;;;;7.61;73.45;102739.97;7395147;19;20018;-55
2024/01/30 02:54:41;;;;;;;;;;;;;;;7.52;74.06;102729.69;7395410;19;20105;-56
2024/01/30 02:57:12;;;;;;;13.73;8.65;;;;;;;7.54;74.13;102734.00;7392358;19;19934;-55
2024/01/30 02:59:43;;;;;;;15.90;8.38;;;;;;;7.68;73.58;102730.13;7394639;19;20475;-56
2024/01/30 03:02:13;;;;;;;13.10;8.02;;;;;;;7.69;73.64;102723.91;7394677;19;20010;-57
2024/01/30 03:04:45;;;;;;;13.75;8.00;;;;;;;7.55;73.56;102704.13;7394806;19;20022;-56
2024/01/30 03:07:15;;;;;;;13.82;9.02;;;;;;;7.71;73.73;102728.25;7392648;19;20031;-56
2024/01/30 03:09:46;;;;;;;13.20;8.38;;;;;;;7.75;73.79;102727.25;7394840;19;20006;-57
2024/01/30 03:12:16;;;;;;;15.35;8.55;;;;;;;7.61;74.07;102724.16;7394302;19;20019;-56
2024/01/30 03:14:47;;;;;;;14.57;8.63;;;;;;;7.57;74.16;102722.50;7393629;19;20023;-57
2024/01/30 03:17:18;;;;;;;15.07;8.73;;;;;;;7.66;73.85;102718.72;7391356;19;20029;-56
2024/01/30 03:19:48;;;;;;;13.93;8.10;;;;;;;7.61;73.96;102713.59;7394158;19;20026;-55
2024/01/30 03:22:19;;;;;;;13.75;8.60;;;;;;;7.49;74.45;102713.97;7394036;19;20018;-56
2024/01/30 03:24:49;;;;;;;13.95;8.27;;;;;;;7.55;74.21;102713.78;7393618;19;20498;-56
2024/01/30 03:27:20;;;;;;;13.18;8.60;;;;;;;7.54;74.18;102706.78;7391858;19;20018;-55
2024/01/30 03:29:51;;;;;;;13.10;8.68;;;;;;;7.49;74.60;102704.28;7393599;19;20010;-54
2024/01/30 03:32:21;;;;;;;15.13;9.30;;;;;;;7.52;74.54;102706.84;7392321;19;20051;-55
2024/01/30 03:34:52;;;;;;;13.82;8.65;;;;;;;7.51;74.49;102712.13;7393601;19;20377;-55
2024/01/30 03:37:22;;;;;;;15.20;8.98;;;;;;;7.56;74.44;102702.34;7391592;19;20022;-56
2024/01/30 03:39:53;;;;;;;13.88;9.10;;;;;;;7.59;74.43;102704.84;7393568;19;20106;-55
2024/01/30 03:42:24;;;;;;;13.85;8.55;;;;;;;7.60;74.34;102706.59;7392795;19;20030;-54
2024/01/30 03:44:55;;;;;;;12.95;8.32;;;;;;;7.67;74.38;102704.63;7391190;19;20018;-56
2024/01/30 03:47:25;;;;;;;14.05;8.70;;;;;;;7.60;74.59;102696.06;7391587;19;20039;-55
2024/01/30 03:49:55;;;;;;;12.48;8.30;;;;;;;7.67;74.61;102692.34;7392924;19;20516;-56
2024/01/30 03:52:26;;;;;;;16.63;9.15;;;;;;;7.58;74.74;102682.91;7392659;19;20032;-52
2024/01/30 03:54:57;;;;;;;15.23;8.40;;;;;;;7.51;75.04;102694.53;7392440;19;20022;-55
2024/01/30 03:57:29;;;;;;;15.50;8.35;;;;;;;7.52;75.12;102687.53;7390844;19;20034;-52
2024/01/30 04:00:00;;;;;;;12.77;8.63;;;;;;;7.44;75.45;102695.66;7393069;19;20382;-56
2024/01/30 04:02:39;;;;;;;13.27;8.73;;;;;;;7.49;75.55;102687.59;7392579;19;20030;-54
2024/01/30 04:05:10;;;;;;;15.45;9.00;;;;;;;7.54;75.23;102698.88;7392681;19;20090;-55
2024/01/30 04:07:44;;;;;;;13.15;8.38;;;;;;;7.55;75.31;102693.56;7390584;19;20011;-56
2024/01/30 04:10:14;;;;;;;13.82;8.63;;;;;;;7.66;75.16;102692.38;7392150;19;20014;-55
2024/01/30 04:12:43;;;;;;;14.10;8.95;;;;;;;7.71;74.99;102691.34;7392588;19;20022;-56
2024/01/30 04:15:14;;;;;;;12.80;8.15;;;;;;;7.72;74.99;102690.41;7392135;19;20022;-55
2024/01/30 04:17:44;;;;;;;12.82;7.97;;;;;;;7.75;75.01;102687.69;7389852;19;20014;-56
2024/01/30 04:20:16;;;;;;;15.15;8.82;;;;;;;7.77;75.00;102692.91;7391810;19;20014;-56
2024/01/30 04:22:47;;;;;;;16.67;9.30;;;;;;;7.77;74.91;102688.50;7390430;19;20036;-56
2024/01/30 04:25:17;;;;;;;15.80;8.77;;;;;;;7.71;75.40;102691.34;7391920;19;20496;-56
2024/01/30 04:27:46;;;;;;;15.57;8.65;;;;;;;7.72;75.25;102686.91;7389784;19;20043;-54
2024/01/30 04:30:16;;;;;;;14.48;8.80;;;;;;;7.70;75.38;102684.31;7391641;19;20047;-57
2024/01/30 04:32:47;;;;;;;14.70;8.93;;;;;;;7.72;75.41;102679.00;7391468;19;20371;-55
2024/01/30 04:35:17;;;;;;;13.82;8.98;;;;;;;7.63;75.28;102680.16;7391510;19;20023;-56
2024/01/30 04:37:48;;;;;;;14.18;8.55;;;;;;;7.62;75.71;102682.81;7391754;19;20429;-56
2024/01/30 04:40:20;;;;;;;13.93;8.77;;;;;;;7.67;75.74;102676.50;7391747;19;20658;-54
2024/01/30 04:42:54;;;;;;;16.08;9.25;;;;;;;7.69;75.62;102676.47;7392019;19;20034;-54
2024/01/30 04:45:24;;;;;;;14.18;8.13;;;;;;;7.74;75.46;102677.16;7390709;19;20496;-55
2024/01/30 04:47:56;;;;;;;16.52;8.82;;;;;;;7.66;75.51;102674.75;7391891;19;20007;-55
2024/01/30 04:50:27;;;;;;;16.42;9.30;;;;;;;7.66;75.73;102674.75;7391685;19;20026;-52
2024/01/30 04:52:57;;;;;;;16.25;9.05;;;;;;;7.62;75.73;102672.28;7390233;19;20107;-55
2024/01/30 04:55:30;;;;;;;14.13;9.23;;;;;;;7.64;75.73;102673.97;7390529;19;20023;-56
2024/01/30 04:58:01;;;;;;;13.98;8.32;;;;;;;7.63;75.70;102669.63;7398742;19;20043;-57
2024/01/30 05:00:38;;;;;;;14.07;8.60;;;;;;;7.68;75.84;102670.31;7399022;19;20014;-57
2024/01/30 05:03:08;;;;;;;16.05;8.98;;;;;;;7.61;75.77;102665.28;7398757;19;20019;-55
2024/01/30 05:05:41;;;;;;;13.98;8.68;;;;;;;7.62;75.93;102664.38;7397800;19;20022;-57
2024/01/30 05:08:12;;;;;;;14.73;8.65;;;;;;;7.70;75.59;102665.00;7397027;19;20018;-56
2024/01/30 05:10:43;;;;;;;15.52;9.07;;;;;;;7.72;75.78;102664.03;7398908;19;20031;-56
2024/01/30 05:13:13;;;;;;;15.50;8.73;;;;;;;7.61;76.02;102660.00;7398870;19;20082;-56
2024/01/30 05:15:44;;;;;;;13.77;9.20;;;;;;;7.59;76.18;102665.31;7395683;19;20018;-55
2024/01/30 05:18:14;;;;;;;17.52;9.20;;;;;;;7.49;76.31;102656.84;7398520;19;20029;-54
2024/01/30 05:20:45;;;;;;;13.35;8.32;;;;;;;7.49;76.47;102654.19;7399014;19;20025;-56
2024/01/30 05:23:16;;;;;;;14.45;8.15;;;;;;;7.54;76.41;102656.69;7396520;19;20039;-56
2024/01/30 05:25:46;;;;;;;20.70;9.82;;;;;;;7.57;76.19;102654.81;7396987;19;20039;-56
2024/01/30 05:28:17;;;;;;;14.10;9.35;;;;;;;7.62;76.09;102659.09;7396066;19;20018;-55
2024/01/30 05:30:47;;;;;;;13.30;8.88;;;;;;;7.62;76.23;102659.94;7396424;19;20014;-57
2024/01/30 05:33:18;;;;;;;14.40;8.82;;;;;;;7.58;76.58;102655.69;7397778;19;20023;-56
2024/01/30 05:35:48;;;;;;;15.38;9.20;;;;;;;7.61;76.41;102649.47;7397041;19;20440;-55
2024/01/30 05:38:19;;;;;;;15.95;9.25;;;;;;;7.55;76.50;102648.75;7397772;19;20620;-55
2024/01/30 05:40:50;;;;;;;16.33;9.02;;;;;;;7.57;76.65;102646.06;7399136;19;20083;-57
2024/01/30 05:43:20;;;;;;;16.90;9.25;;;;;;;7.59;76.66;102652.13;7398808;19;20760;-55
2024/01/30 05:45:51;;;;;;;16.23;8.90;;;;;;;7.65;76.38;102653.72;7397710;19;20014;-58
2024/01/30 05:48:22;;;;;;;17.13;9.52;;;;;;;7.66;76.22;102647.53;7399018;19;20022;-58
2024/01/30 05:50:52;;;;;;;15.35;8.95;;;;;;;7.70;76.03;102650.03;7398469;19;20510;-58
2024/01/30 05:53:23;;;;;;;15.88;9.23;;;;;;;7.61;76.70;102646.81;7398852;19;20053;-57
2024/01/30 05:55:54;;;;;;;13.65;9.13;;;;;;;7.59;76.67;102646.84;7396944;19;20018;-57
2024/01/30 05:58:24;;;;;;;14.60;9.45;;;;;;;7.56;77.16;102650.47;7398563;19;20509;-57
2024/01/30 06:00:55;;;;;;;15.55;9.35;;;;;;;7.57;76.81;102654.81;7398707;19;20022;-58
2024/01/30 06:03:26;;;;;;;14.32;9.05;;;;;;;7.60;76.93;102645.97;7398600;19;20039;-58
2024/01/30 06:05:56;;;;;;;13.50;8.50;;;;;;;7.62;76.91;102653.81;7397141;19;20392;-52
2024/01/30 06:08:28;;;;;;;15.25;8.82;;;;;;;7.65;76.92;102659.88;7396458;19;20048;-55
2024/01/30 06:11:00;;;;;;;14.90;8.95;;;;;;;7.75;76.40;102668.38;7398038;19;20030;-56
2024/01/30 06:13:37;;;;;;;15.80;8.98;;;;;;;7.70;76.85;102665.00;7397143;19;20089;-56
2024/01/30 06:16:11;;;;;;;17.08;8.52;;;;;;;7.72;76.60;102664.03;7396351;19;20018;-55
2024/01/30 06:18:44;;;;;;;13.80;8.40;;;;;;;7.70;76.64;102659.72;7398249;19;20027;-55
2024/01/30 06:21:14;;;;;;;15.32;9.15;;;;;;;7.67;76.68;102659.81;7398302;19;20015;-55
2024/01/30 06:23:45;;;;;;;14.23;9.32;;;;;;;7.74;76.40;102656.94;7399076;19;20018;-55
2024/01/30 06:26:15;;;;;;;16.00;9.45;;;;;;;7.71;76.41;102651.78;7392119;19;20022;-56
2024/01/30 06:28:46;;;;;;;15.25;9.23;;;;;;;7.78;76.41;102644.50;7395832;19;20025;-56
2024/01/30 06:31:16;;;;;;;17.45;9.35;;;;;;;7.81;76.54;102647.06;7395613;19;20036;-55
2024/01/30 06:33:47;;;;;;;18.55;9.25;;;;;;;7.79;76.38;102643.63;7394485;19;20363;-56
2024/01/30 06:36:18;;;;;;;16.58;9.13;;;;;;;7.73;76.74;102654.34;7394144;19;20694;-57
2024/01/30 06:38:48;;;;;;;15.88;9.90;;;;;;;7.78;76.49;102647.16;7395704;19;20023;-56
2024/01/30 06:41:19;;;;;;;14.98;9.38;;;;;;;7.79;76.76;102646.25;7395382;19;20018;-54
2024/01/30 06:43:49;;;;;;;16.58;9.65;;;;;;;7.74;76.95;102640.25;7394256;19;20018;-56
2024/01/30 06:46:20;;;;;;;14.98;9.80;;;;;;;7.78;76.78;102642.78;7393704;19;20572;-54
2024/01/30 06:48:51;;;;;;;16.95;9.77;;;;;;;7.86;76.55;102639.00;7395337;19;20014;-57
2024/01/30 06:51:21;;;;;;;15.57;9.80;;;;;;;7.89;76.07;102637.13;7395524;19;20022;-56
2024/01/30 06:53:52;;;;;;;16.23;9.45;;;;;;;7.96;76.02;102641.28;7395115;19;20011;-56
2024/01/30 06:56:23;;;;;;;17.08;9.73;;;;;;;7.91;76.37;102637.94;7393340;19;20022;-57
2024/01/30 06:58:53;;;;;;;16.13;9.55;;;;;;;7.94;75.97;102637.00;7395558;19;20037;-56
2024/01/30 07:01:29;;;;;;;14.30;9.20;;;;;;;7.91;76.06;102637.94;7395600;19;20033;-56
2024/01/30 07:04:00;;;;;;;15.00;9.90;;;;;;;7.95;75.93;102636.94;7394738;19;20082;-54
2024/01/30 07:06:37;;;;;;;15.55;9.95;;;;;;;7.92;76.18;102637.03;7393320;19;20018;-57
2024/01/30 07:09:09;;;;;;;15.85;9.73;;;;;;;7.95;75.95;102631.66;7395298;19;20014;-56
2024/01/30 07:11:40;;;;;;;15.38;9.73;;;;;;;7.91;76.10;102635.31;7394222;19;20085;-57
2024/01/30 07:14:11;;;;;;;16.58;10.10;;;;;;;7.79;76.74;102646.25;7394368;19;20019;-55
2024/01/30 07:16:41;;;;;;;15.18;10.13;;;;;;;7.79;76.55;102636.56;7392281;19;20034;-55
2024/01/30 07:19:12;;;;;;;17.20;9.85;;;;;;;7.86;76.46;102642.53;7393999;19;20019;-57
2024/01/30 07:21:43;;;;;;;14.75;9.90;;;;;;;7.87;76.44;102640.75;7392764;19;20019;-57
2024/01/30 07:24:13;;;;;;;16.75;9.57;;;;;;;7.87;76.32;102633.69;7394269;19;20043;-54
2024/01/30 07:26:44;;;;;;;16.23;10.00;;;;;;;7.87;76.41;102638.97;7392638;19;20086;-57
2024/01/30 07:29:14;;;;;;;16.20;9.82;;;;;;;7.92;76.24;102638.81;7393911;19;20030;-57
2024/01/30 07:31:45;;;;;;;16.02;9.90;;;;;;;7.93;75.92;102629.97;7393597;19;20022;-55
2024/01/30 07:34:16;;;;;;;18.98;10.23;;;;;;;7.84;76.11;102631.16;7394126;19;20018;-57
2024/01/30 07:36:47;;;;;;;14.18;9.75;;;;;;;7.91;76.15;102621.28;7392564;19;20026;-58
2024/01/30 07:39:17;;;;;;;18.48;10.45;;;;;;;7.72;76.68;102613.06;7393586;19;20010;-56
2024/01/30 07:41:48;;;;;;;18.17;10.13;;;;;;;7.58;77.02;102618.78;7393721;19;20021;-58
2024/01/30 07:44:18;;;;;;;15.05;9.95;;;;;;;7.72;76.71;102619.22;7393433;19;20011;-57
2024/01/30 07:46:49;;;;;;;16.23;9.68;;;;;;;7.77;76.50;102608.50;7391640;19;20035;-56
2024/01/30 07:49:19;;;;;;;17.05;10.10;;;;;;;7.91;76.04;102605.44;7393872;19;20014;-57
2024/01/30 07:51:50;;;;;;;15.23;9.80;;;;;;;7.97;75.80;102611.34;7393479;19;20018;-54
2024/01/30 07:54:20;;;;;;;17.45;10.07;;;;;;;8.01;76.04;102613.00;7393003;19;20501;-56
2024/01/30 07:56:51;;;;;;;17.52;9.75;;;;;;;7.97;75.78;102611.34;7390017;19;20030;-57
2024/01/30 07:59:24;;;;;;;17.98;10.50;;;;;;;7.96;76.23;102603.50;7393380;19;20283;-57
2024/01/30 08:01:54;;;;;;;17.42;10.38;;;;;;;8.04;75.80;102612.88;7391440;19;20080;-58
2024/01/30 08:04:25;;;;;;;15.82;9.30;;;;;;;8.09;75.97;102609.22;7392882;19;20022;-57
2024/01/30 08:06:56;;;;;;;14.93;9.07;;;;;;;8.15;76.00;102619.59;7391293;19;20023;-57
2024/01/30 08:09:26;;;;;;;15.98;9.77;;;;;;;8.13;75.59;102619.66;7392428;19;20035;-56
2024/01/30 08:11:57;;;;;;;19.00;10.38;;;;;;;8.20;75.49;102620.28;7392928;19;20027;-58
2024/01/30 08:14:29;;;;;;;18.30;10.13;;;;;;;8.21;75.70;102624.69;7392624;19;20014;-58
2024/01/30 08:17:00;;;;;;;17.73;9.93;;;;;;;8.11;75.89;102625.88;7390117;19;20040;-57
2024/01/30 08:19:37;;;;;;;15.25;9.85;;;;;;;8.12;76.05;102624.97;7391858;19;20010;-58
2024/01/30 08:22:08;;;;;;;15.80;9.30;;;;;;;8.19;75.74;102616.78;7392075;19;20086;-57
2024/01/30 08:24:41;;;;;;;14.20;9.93;;;;;;;8.22;75.36;102614.06;7392113;19;20014;-58
2024/01/30 08:27:12;;;;;;;16.58;9.82;;;;;;;8.21;75.47;102614.13;7390766;19;20018;-56
2024/01/30 08:29:42;;;;;;;16.42;9.80;;;;;;;8.30;75.28;102621.72;7393037;19;20019;-58
2024/01/30 08:32:13;;;;;;;16.33;10.45;;;;;;;8.36;75.18;102620.66;7391429;19;20018;-57
2024/01/30 08:34:44;;;;;;;18.05;10.43;;;;;;;8.40;75.07;102631.09;7390692;19;20032;-58
2024/01/30 08:37:16;;;;;;;15.27;9.63;;;;;;;8.44;74.90;102629.19;7390158;19;20392;-58
2024/01/30 08:39:47;;;;;;;14.85;9.93;;;;;;;8.36;75.05;102624.16;7392054;19;20491;-57
2024/01/30 08:42:22;;;;;;;16.92;9.85;;;;;;;8.41;74.95;102626.66;7391911;19;20025;-57
2024/01/30 08:44:54;;;;;;;18.02;9.32;;;;;;;8.45;74.92;102615.94;7389998;19;20048;-57
2024/01/30 08:47:25;;;;;;;16.08;9.75;;;;;;;8.51;74.98;102626.28;7389875;19;20030;-57
2024/01/30 08:49:56;;;;;;;16.42;10.18;;;;;;;8.61;74.60;102612.75;7391700;19;20052;-57
2024/01/30 08:52:26;;;;;;;17.55;9.82;;;;;;;8.58;74.36;102597.00;7391793;19;20098;-54
2024/01/30 08:54:57;;;;;;;16.83;9.95;;;;;;;8.65;74.56;102612.59;7391327;19;20018;-58
2024/01/30 08:57:32;;;;;;;16.63;9.57;;;;;;;8.62;74.78;102609.19;7387591;19;20015;-57
2024/01/30 09:00:06;;;;;;;14.75;9.30;;;;;;;8.67;74.45;102596.69;7390809;19;20036;-58
2024/01/30 09:02:42;;;;;;;18.83;10.13;;;;;;;8.74;74.58;102598.22;7389640;19;20081;-58
2024/01/30 09:05:13;;;;;;;15.98;9.65;;;;;;;8.76;74.36;102602.50;7391004;19;20014;-57
2024/01/30 09:07:46;;;;;;;17.42;9.68;;;;;;;8.74;74.56;102598.22;7388838;19;20018;-57
2024/01/30 09:10:17;;;;;;;16.20;9.57;;;;;;;8.81;74.40;102604.97;7390893;19;20105;-57
2024/01/30 09:12:50;;;;;;;16.65;10.07;;;;;;;8.84;74.50;102598.72;7391007;19;20378;-55
2024/01/30 09:15:20;;;;;;;15.55;9.93;;;;;;;8.89;74.05;102600.28;7390458;19;20022;-59
2024/01/30 09:17:56;;;;;;;17.35;9.70;;;;;;;8.84;74.55;102601.34;7389591;19;20047;-58
2024/01/30 09:20:27;;;;;;;16.17;9.57;;;;;;;8.99;73.94;102614.88;7390746;19;20021;-58
2024/01/30 09:23:00;;;;;;;15.63;9.25;;;;;;;8.93;74.18;102611.56;7390332;19;20124;-56
2024/01/30 09:25:38;;;;;;;15.07;9.65;;;;;;;8.91;74.52;102614.28;7389824;19;20077;-57
2024/01/30 09:28:08;;;;;;;19.60;10.80;;;;;;;8.82;74.60;102613.78;7388744;19;20026;-57
2024/01/30 09:30:39;;;;;;;17.25;9.40;;;;;;;8.90;74.55;102609.94;7390101;19;20021;-56
2024/01/30 09:33:10;;;;;;;17.33;10.02;;;;;;;9.02;74.64;102613.91;7389959;19;20026;-53
2024/01/30 09:35:41;;;;;;;16.58;9.43;;;;;;;9.12;74.15;102607.34;7389277;19;20082;-57
2024/01/30 09:38:11;;;;;;;16.50;9.50;;;;;;;9.21;73.92;102609.63;7388541;19;20022;-57
2024/01/30 09:43:23;;;;;;;16.88;9.35;;;;;;;9.16;74.16;102597.53;7392389;19;20488;-61
2024/01/30 09:45:57;;;;;;;15.18;9.20;;;;;;;9.29;74.13;102593.47;7394514;19;20023;-61
2024/01/30 09:48:33;;;;;;;14.85;8.98;;;;;;;9.43;73.49;102598.25;7397245;19;20492;-61
2024/01/30 09:51:05;;;;;;;17.83;9.20;;;;;;;9.49;73.37;102613.84;7396771;19;20026;-63
2024/01/30 09:53:39;;;;;;;16.42;9.48;;;;;;;9.53;73.64;102608.38;7396804;19;20082;-62
2024/01/30 09:56:11;;;;;;;14.40;9.07;;;;;;;9.48;73.58;102610.34;7395274;19;20074;-62
2024/01/30 09:58:41;;;;;;;16.38;9.45;;;;;;;9.47;74.11;102605.13;7394833;19;20010;-61
2024/01/30 10:01:13;;;;;;;15.10;9.13;;;;;;;9.49;73.77;102608.56;7396494;19;20035;-61
2024/01/30 10:03:44;;;;;;;17.50;9.02;;;;;;;9.59;73.73;102611.72;7396366;19;20051;-61
2024/01/30 10:06:15;;;;;;;15.50;8.90;;;;;;;9.69;73.22;102613.06;7393898;19;20073;-61
2024/01/30 10:08:45;;;;;;;16.63;9.15;;;;;;;9.64;73.66;102610.59;7396452;19;20021;-60
2024/01/30 10:11:16;;;;;;;14.88;9.35;;;;;;;9.70;73.59;102615.66;7396470;19;20036;-61
2024/01/30 10:13:47;;;;;;;16.45;8.95;;;;;;;9.66;73.94;102605.28;7396950;19;20035;-60
2024/01/30 10:16:17;;;;;;;17.45;9.73;;;;;;;9.62;74.13;102603.69;7394940;19;20022;-61
2024/01/30 10:18:48;;;;;;;18.23;9.30;;;;;;;9.72;73.99;102608.50;7394738;19;20015;-61
2024/01/30 10:21:18;;;;;;;14.02;9.02;;;;;;;9.75;73.88;102618.97;7396891;19;20022;-61
2024/01/30 10:23:49;;;;;;;15.90;8.98;;;;;;;9.77;73.99;102613.63;7396228;19;20018;-60
2024/01/30 10:26:20;;;;;;;15.05;8.95;;;;;;;9.74;74.01;102611.97;7392923;19;20566;-61
2024/01/30 10:28:51;;;;;;;13.95;8.88;;;;;;;9.80;74.17;102616.13;7394115;19;20031;-61
2024/01/30 10:31:22;;;;;;;13.27;8.35;;;;;;;9.91;73.85;102613.06;7395960;19;20018;-61
2024/01/30 10:33:53;;;;;;;13.52;8.30;;;;;;;9.94;73.82;102605.84;7396213;19;20364;-59
2024/01/30 10:36:43;;;;;;;14.38;8.50;;;;;;;9.93;74.00;102601.50;7392216;19;20707;-60
2024/01/30 10:39:17;;;;;;;16.88;9.35;;;;;;;9.98;74.01;102604.81;7393394;19;20019;-60
2024/01/30 10:41:49;;;;;;;15.68;9.05;;;;;;;10.08;73.83;102602.66;7395463;19;20014;-60
2024/01/30 10:44:22;;;;;;;16.50;8.50;;;;;;;10.19;73.54;102596.91;7394471;19;20018;-60
2024/01/30 10:47:00;;;;;;;12.23;8.13;;;;;;;10.18;73.58;102601.31;7393439;19;20474;-60
2024/01/30 10:49:39;;;;;;;14.68;8.32;;;;;;;10.27;73.31;102597.47;7394967;19;20018;-60
2024/01/30 10:52:10;;;;;;;13.43;7.78;;;;;;;10.32;73.23;102599.91;7394908;19;20021;-60
2024/01/30 10:54:45;;;;;;;13.30;8.10;;;;;;;10.36;73.39;102602.34;7394161;19;20022;-59
2024/01/30 10:57:16;;;;;;;15.70;8.65;;;;;;;10.33;73.52;102596.34;7390985;19;20014;-59
2024/01/30 10:59:48;;;;;;;14.80;8.38;;;;;;;10.41;73.52;102594.22;7395269;19;20211;-59
2024/01/30 11:02:19;;;;;;;14.07;8.45;;;;;;;10.47;73.31;102591.31;7394687;19;20501;-59
2024/01/30 11:04:56;;;;;;;13.63;8.18;;;;;;;10.46;73.59;102589.59;7394434;19;20015;-59
2024/01/30 11:07:29;;;;;;;14.40;8.80;;;;;;;10.52;73.41;102580.50;7390712;19;20537;-60
2024/01/30 11:10:01;;;;;;;13.73;9.43;;;;;;;10.49;73.33;102570.91;7395120;19;20327;-60
2024/01/30 11:12:43;;;;;;;15.80;9.02;;;;;;;10.49;73.73;102579.72;7393990;19;20022;-59
2024/01/30 11:15:16;;;;;;;13.13;8.30;;;;;;;10.57;73.29;102595.28;7394921;19;20018;-59
2024/01/30 11:17:49;;;;;;;14.93;8.48;;;;;;;10.64;73.59;102596.72;7392619;19;20011;-56
2024/01/30 11:20:22;;;;;;;15.73;8.70;;;;;;;10.71;73.40;102586.72;7393914;19;20102;-59
2024/01/30 11:22:56;;;;;;;14.13;8.20;;;;;;;10.78;73.05;102582.84;7394357;19;20353;-59
2024/01/30 11:25:32;;;;;;;15.38;7.95;;;;;;;10.79;73.17;102581.06;7391611;19;20025;-60
2024/01/30 11:28:03;;;;;;;15.40;8.43;;;;;;;10.83;73.43;102585.28;7393572;19;20018;-63
2024/01/30 11:30:39;;;;;;;16.67;9.05;;;;;;;10.83;73.77;102588.78;7393447;19;20022;-64
2024/01/30 11:33:14;;;;;;;12.40;7.85;;;;;;;10.89;73.52;102590.31;7393815;19;20400;-62
2024/01/30 11:35:46;;;;;;;14.88;8.02;;;;;;;10.94;73.22;102586.53;7392585;19;20068;-61
2024/01/30 11:38:17;;;;;;;15.52;8.18;;;;;;;11.01;73.01;102584.47;7393213;19;20090;-63
2024/01/30 11:40:49;;;;;;;14.88;8.68;;;;;;;11.06;72.79;102574.50;7392139;19;20014;-61
2024/01/30 11:43:20;;;;;;;12.20;7.30;;;;;;;11.05;72.83;102571.91;7393640;19;20408;-63
2024/01/30 11:45:51;;;;;;;16.95;8.00;;;;;;;10.98;73.19;102560.72;7391010;19;20340;-63